This is the latest recevied weather packets stored in our database for station/object KQ4HEI. If no packets are shown the sender has not sent any weather packets the latest 10 day(s).
| Time | Temp. | Humidity | Pressure | Rain* | Wind** | Luminosity | Snow |
|---|---|---|---|---|---|---|---|
| 1777470092 | 26.11° C | 75% | 1016.1 hPa | 0 mm | - | - | - |
| 1777469493 | 25° C | 79% | 1016.1 hPa | 0 mm | - | - | - |
| 1777468892 | 23.89° C | 82% | 1016.2 hPa | 0 mm | - | - | - |
| 1777468293 | 22.78° C | 89% | 1016.4 hPa | 0 mm | - | - | - |
| 1777467692 | 21.67° C | 94% | 1016.5 hPa | 0 mm | - | - | - |
| 1777467093 | 21.11° C | 98% | 1016.5 hPa | 0 mm | - | - | - |
| 1777466492 | 20° C | 99% | 1016.2 hPa | 0 mm | - | - | - |
| 1777465892 | 19.44° C | 99% | 1015.9 hPa | 0 mm | - | - | - |
| 1777465293 | 19.44° C | 99% | 1015.5 hPa | 0 mm | - | - | - |
| 1777464692 | 19.44° C | 99% | 1015.5 hPa | 0 mm | - | - | - |
| 1777464093 | 19.44° C | 99% | 1015.5 hPa | 0 mm | - | - | - |
| 1777463492 | 18.89° C | 99% | 1015.4 hPa | 0 mm | - | - | - |
| 1777462292 | 17.78° C | 99% | 1015.4 hPa | 0 mm | - | - | - |
| 1777461693 | 17.78° C | 99% | 1015.4 hPa | 0 mm | - | - | - |
| 1777461092 | 17.78° C | 99% | 1015 hPa | 0 mm | - | - | - |
| 1777460492 | 17.78° C | 99% | 1014.8 hPa | 0 mm | - | - | - |
| 1777459892 | 17.78° C | 99% | 1014.7 hPa | 0 mm | - | - | - |
| 1777459292 | 17.78° C | 99% | 1014.9 hPa | 0 mm | - | - | - |
| 1777458096 | 17.78° C | 99% | 1015.7 hPa | 0 mm | - | - | - |
| 1777456894 | 17.78° C | 99% | 1016 hPa | 0 mm | - | - | - |
| 1777455093 | 16.67° C | 99% | 1014.7 hPa | 0 mm | - | - | - |
| 1777454493 | 16.67° C | 99% | 1014.4 hPa | 0 mm | - | - | - |
| 1777453293 | 16.67° C | 99% | 1013.9 hPa | 0 mm | - | - | - |
| 1777451493 | 16.67° C | 99% | 1013.9 hPa | 0 mm | - | - | - |
| 1777450892 | 17.22° C | 99% | 1013.9 hPa | 0 mm | - | - | - |
* Rain latest hour (hover to see other rain measurements)
** Current wind speed in m/s (hover to see current wind gust speed)